»·PEaware :: N9271J KGCN-KIFP

N9271J :: KGCN-KIFP

FLIGHT INFORMATION

Flight Status: Arrived
Operator: Privately registered:
United States
More flights under this callsign
Pilot: Chris L. (17558)
Aircraft: CESSNA 172 SKYHAWK
(C172)
More flights by this aircraft type
Origin: KGCN Grand Canyon Natl Park
United States
Destination: KIFP Laughlin/Bullhead Intl
United States
More flights between these airports :: More routes between these airports
Route: PGS
File this flight plan on PilotEdge
Remarks:
Altitude:
(Current/Filed)
8,500ft
Speed:
(Current/Filed)
107kts
Departed: 04-Jul-18 11:42 AM
Arrived: 04-Jul-18 01:03 PM
Distance/Time
Traveled:
127nm/1:21
Distance/Time
To Go:
Arrived

Flight Plot

Page will automatically refresh every two minutes.

Flight plan parsing failed; only flown route is shown


Map Options




Map Legend


Flown Route
Filed Route
Departure Airport
Arrival Airport
Navaid (VOR, NDB)
Fix

Horizontal Profiles

Position Reports

Time Latitude Longitude Heading Altitude Ground
Speed
04-Jul-18 11:19 35.959640 -112.136414 220 6605ft 0kts
04-Jul-18 11:20 35.959640 -112.136414 220 6605ft 0kts
04-Jul-18 11:21 35.959640 -112.136414 220 6605ft 0kts
04-Jul-18 11:22 35.959640 -112.136414 220 6605ft 0kts
04-Jul-18 11:23 35.959640 -112.136414 220 6605ft 0kts
04-Jul-18 11:24 35.959640 -112.136414 220 6605ft 0kts
04-Jul-18 11:25 35.959640 -112.136414 220 6605ft 0kts
04-Jul-18 11:26 35.959640 -112.136414 220 6605ft 0kts
04-Jul-18 11:27 35.959640 -112.136414 220 6605ft 0kts
04-Jul-18 11:28 35.959640 -112.136414 220 6605ft 0kts
04-Jul-18 11:29 35.959640 -112.136414 220 6605ft 0kts
04-Jul-18 11:30 35.959640 -112.136414 220 6605ft 0kts
04-Jul-18 11:31 35.959640 -112.136414 220 6605ft 0kts
04-Jul-18 11:32 35.959640 -112.136414 220 6605ft 0kts
04-Jul-18 11:34 35.959640 -112.136414 220 6605ft 0kts
04-Jul-18 11:35 35.959640 -112.136414 220 6605ft 0kts
04-Jul-18 11:36 35.959640 -112.136414 220 6605ft 0kts
04-Jul-18 11:37 35.959640 -112.136414 220 6605ft 0kts
04-Jul-18 11:38 35.961028 -112.136315 337 6605ft 0kts
04-Jul-18 11:39 35.961028 -112.136315 337 6605ft 0kts
04-Jul-18 11:40 35.961028 -112.136314 336 6605ft 0kts
04-Jul-18 11:41 35.961028 -112.136314 336 6605ft 0kts
04-Jul-18 11:42 35.961241 -112.137476 223 6605ft 10kts
04-Jul-18 11:43 35.951036 -112.148699 220 6810ft 65kts
04-Jul-18 11:44 35.940536 -112.167446 241 7236ft 68kts
04-Jul-18 11:45 35.928524 -112.185680 233 7652ft 70kts
04-Jul-18 11:46 35.922424 -112.210842 255 7964ft 82kts
04-Jul-18 11:47 35.919963 -112.239929 256 8279ft 87kts
04-Jul-18 11:48 35.917323 -112.270074 255 8597ft 88kts
04-Jul-18 11:49 35.913479 -112.303861 254 8557ft 107kts
04-Jul-18 11:50 35.907956 -112.340108 253 8527ft 104kts
04-Jul-18 11:51 35.902767 -112.374909 253 8530ft 102kts
04-Jul-18 11:52 35.896081 -112.408689 246 8528ft 100kts
04-Jul-18 11:53 35.886631 -112.441126 243 8529ft 100kts
04-Jul-18 11:54 35.875834 -112.472750 241 8525ft 99kts
04-Jul-18 11:55 35.863341 -112.503168 236 8526ft 99kts
04-Jul-18 11:56 35.847639 -112.530612 226 8526ft 97kts
04-Jul-18 11:57 35.828048 -112.553740 220 8524ft 97kts
04-Jul-18 11:58 35.818699 -112.584859 253 8524ft 101kts
04-Jul-18 11:59 35.813563 -112.618648 253 8525ft 101kts
04-Jul-18 12:00 35.806078 -112.651554 240 8526ft 98kts
04-Jul-18 12:01 35.790123 -112.677724 239 8526ft 99kts
04-Jul-18 12:02 35.785335 -112.711830 272 8528ft 106kts
04-Jul-18 12:03 35.788342 -112.747695 262 8530ft 104kts
04-Jul-18 12:04 35.786385 -112.783282 256 8528ft 104kts
04-Jul-18 12:05 35.781765 -112.818334 252 8527ft 103kts
04-Jul-18 12:06 35.775771 -112.852854 250 8527ft 103kts
04-Jul-18 12:07 35.769018 -112.887349 249 8524ft 103kts
04-Jul-18 12:08 35.761951 -112.921486 248 8525ft 103kts
04-Jul-18 12:09 35.754632 -112.955659 248 8524ft 103kts
04-Jul-18 12:10 35.747142 -112.990034 247 8523ft 104kts
04-Jul-18 12:11 35.739565 -113.024501 247 8522ft 104kts
04-Jul-18 12:12 35.731864 -113.059293 247 8507ft 106kts
04-Jul-18 12:13 35.724080 -113.094352 248 8472ft 107kts
04-Jul-18 12:14 35.716217 -113.129712 248 8428ft 107kts
04-Jul-18 12:15 35.708337 -113.165107 247 8394ft 107kts
04-Jul-18 12:16 35.700430 -113.200511 248 8360ft 107kts
04-Jul-18 12:17 35.692271 -113.235420 246 8326ft 106kts
04-Jul-18 12:18 35.683059 -113.269682 245 8294ft 105kts
04-Jul-18 12:19 35.674320 -113.303781 246 8279ft 104kts
04-Jul-18 12:20 35.666115 -113.337769 246 8279ft 103kts
04-Jul-18 12:21 35.658173 -113.371783 247 8279ft 103kts
04-Jul-18 12:22 35.650354 -113.405809 247 8279ft 103kts
04-Jul-18 12:23 35.643023 -113.438498 246 8596ft 71kts
04-Jul-18 12:24 35.637316 -113.463181 245 8702ft 87kts
04-Jul-18 12:25 35.630285 -113.493882 247 8700ft 97kts
04-Jul-18 12:26 35.622971 -113.526532 248 8700ft 100kts
04-Jul-18 12:27 35.615358 -113.560099 247 8699ft 102kts
04-Jul-18 12:28 35.604729 -113.592279 238 8699ft 101kts
04-Jul-18 12:29 35.591791 -113.622758 235 8699ft 101kts
04-Jul-18 12:30 35.577781 -113.651797 232 8700ft 100kts
04-Jul-18 12:31 35.562277 -113.680268 229 8700ft 100kts
04-Jul-18 12:32 35.546335 -113.708506 236 8700ft 102kts
04-Jul-18 12:33 35.532849 -113.739030 234 8700ft 101kts
04-Jul-18 12:34 35.518167 -113.768413 231 8700ft 101kts
04-Jul-18 12:35 35.503369 -113.797751 236 8700ft 101kts
04-Jul-18 12:36 35.489637 -113.827941 233 8700ft 101kts
04-Jul-18 12:37 35.474639 -113.857087 230 8700ft 100kts
04-Jul-18 12:38 35.460568 -113.886955 235 8700ft 101kts
04-Jul-18 12:39 35.446358 -113.916785 232 8700ft 101kts
04-Jul-18 12:40 35.431040 -113.945632 236 8699ft 101kts
04-Jul-18 12:41 35.417610 -113.976023 234 8700ft 101kts
04-Jul-18 12:42 35.402920 -114.005378 231 8700ft 100kts
04-Jul-18 12:43 35.388384 -114.034696 236 8699ft 101kts
04-Jul-18 12:44 35.374599 -114.064383 233 8699ft 100kts
04-Jul-18 12:45 35.359490 -114.093174 230 8699ft 100kts
04-Jul-18 12:46 35.345701 -114.123135 235 8699ft 101kts
04-Jul-18 12:47 35.331301 -114.152619 232 8699ft 100kts
04-Jul-18 12:48 35.316287 -114.181496 236 8699ft 101kts
04-Jul-18 12:48 35.304979 -114.206688 234 8699ft 100kts
04-Jul-18 12:49 35.291150 -114.235533 234 8206ft 93kts
04-Jul-18 12:50 35.278373 -114.261972 233 7695ft 88kts
04-Jul-18 12:51 35.265708 -114.287305 233 7187ft 87kts
04-Jul-18 12:52 35.252686 -114.312355 237 6676ft 88kts
04-Jul-18 12:53 35.248277 -114.343302 255 6105ft 96kts
04-Jul-18 12:54 35.244258 -114.375801 255 5497ft 97kts
04-Jul-18 12:55 35.240496 -114.406265 254 5286ft 81kts
04-Jul-18 12:56 35.235928 -114.438184 253 4741ft 105kts
04-Jul-18 12:57 35.229425 -114.473972 253 4049ft 109kts
04-Jul-18 12:58 35.222447 -114.510527 253 3310ft 111kts
04-Jul-18 12:59 35.216785 -114.544595 258 2635ft 87kts
04-Jul-18 13:00 35.205117 -114.562992 175 1640ft 79kts
04-Jul-18 13:01 35.184569 -114.561676 180 977ft 70kts
04-Jul-18 13:02 35.166189 -114.560217 180 792ft 59kts
04-Jul-18 13:03 35.156691 -114.559467 173 699ft 11kts
04-Jul-18 13:04 35.155923 -114.558426 77 699ft 0kts
04-Jul-18 13:05 35.155923 -114.558426 77 699ft 0kts
04-Jul-18 13:06 35.156134 -114.558108 19 699ft 12kts
04-Jul-18 13:07 35.159553 -114.557109 88 699ft 11kts
04-Jul-18 13:08 35.158162 -114.555927 179 699ft 0kts
04-Jul-18 13:09 35.158162 -114.555927 179 699ft 0kts

Navigation Log

Ident Type
Flight plan parsing failed, navigation log unavailable